Date,TemperatureHighF,TemperatureAvgF,TemperatureLowF,DewpointHighF,DewpointAvgF,DewpointLowF,HumidityHigh,HumidityAvg,HumidityLow,PressureMaxIn,PressureMinIn,WindSpeedMaxMPH,WindSpeedAvgMPH,GustSpeedMaxMPH,PrecipitationSumIn
2012-1-1,44.4,37.5,31.6,41.2,33.5,26.1,91,86,79,29.91,29.45,9,3,18,0.02
2012-1-2,31.6,27.8,20.8,26.5,20.9,12.1,82,75,67,30.11,29.78,5,2,12,0.00
2012-1-3,24.6,21.1,18.1,15.5,12.7,10.6,76,70,63,30.23,30.10,3,0,13,0.00
2012-1-4,35.8,28.4,20.8,26.1,20.6,13.3,79,72,66,30.12,29.81,4,1,8,0.00
2012-1-5,42.6,33.9,26.4,33.2,27.5,21.9,86,78,67,29.96,29.64,2,0,9,0.00
2012-1-6,53.2,44.7,36.7,38.8,34.9,31.4,81,69,57,29.69,29.62,5,1,9,0.00
2012-1-7,45.0,39.6,34.3,35.2,30.9,25.7,78,71,62,30.13,29.65,5,2,9,0.00
2012-1-8,39.0,32.3,25.9,28.2,24.0,20.6,82,72,61,30.31,30.13,0,0,1,0.00
2012-1-9,41.5,33.1,24.1,30.7,24.8,19.1,85,72,56,30.24,29.86,5,1,11,0.00
2012-1-10,47.1,36.7,28.8,34.5,28.7,23.9,84,73,58,30.01,29.85,4,0,7,0.00
2012-1-11,47.1,37.6,29.3,36.6,30.8,25.3,87,77,61,29.85,29.47,4,1,10,0.00
2012-1-12,40.8,37.6,27.7,37.8,34.4,23.4,90,88,84,29.46,29.28,4,1,8,0.24
2012-1-13,29.3,25.3,22.5,25.2,20.3,17.3,86,81,77,29.90,29.33,3,0,9,0.00
2012-1-14,27.7,22.9,19.8,20.8,16.9,12.7,83,78,73,30.19,29.90,0,0,2,0.00
2012-1-15,28.6,21.9,17.2,19.0,14.9,11.5,79,74,67,30.39,30.18,1,0,8,0.00
2012-1-16,43.9,33.1,21.0,38.0,27.2,15.2,89,79,70,30.25,29.75,2,0,10,0.10
2012-1-17,50.4,39.4,25.5,48.3,36.4,20.2,93,89,80,29.95,29.32,8,2,14,0.48
2012-1-18,28.0,23.9,20.8,20.4,16.5,14.4,80,73,66,30.21,29.94,4,0,10,0.00
2012-1-19,28.9,20.4,7.0,24.6,13.4,-0.2,85,74,63,30.08,29.69,7,2,13,0.00
2012-1-20,21.0,12.0,2.1,11.5,4.9,-3.8,79,73,63,30.23,30.04,2,0,6,0.00
2012-1-21,26.6,17.1,10.2,17.1,10.5,5.6,83,76,65,30.25,30.03,0,0,0,0.00
2012-1-22,35.4,25.6,12.4,33.3,21.5,6.8,92,84,78,30.21,29.78,5,2,14,0.00
2012-1-23,47.8,40.0,31.8,46.0,37.3,26.7,94,90,81,29.78,29.41,7,3,17,0.42
2012-1-24,33.4,31.8,30.2,27.2,25.9,23.7,81,79,76,30.28,29.77,6,2,12,0.00
2012-1-25,33.6,30.8,28.9,26.4,24.5,22.9,81,77,74,30.32,30.13,1,0,7,0.00
2012-1-26,35.4,32.4,28.9,32.0,28.8,24.0,90,86,81,30.15,29.52,4,1,10,0.20
2012-1-27,39.0,34.3,30.9,34.4,30.4,26.3,91,86,74,29.92,29.49,4,0,9,0.04
2012-1-28,36.9,31.7,26.4,32.5,26.1,18.8,89,80,65,29.99,29.67,11,2,18,0.00
2012-1-29,34.9,28.3,23.2,29.9,22.8,17.0,84,80,73,30.15,29.82,2,0,7,0.02
2012-1-30,35.8,24.5,12.0,31.0,19.0,7.2,84,80,74,30.18,29.87,4,0,14,0.00
2012-1-31,54.9,46.0,36.1,44.9,38.7,31.4,84,76,63,29.88,29.78,4,1,11,0.22
2012-2-1,49.6,42.9,37.4,45.2,36.8,31.6,86,79,71,30.10,29.79,4,1,57,0.00
2012-2-2,39.7,35.3,28.2,32.1,29.7,24.3,85,80,73,30.37,30.08,0,0,4,0.00
2012-2-3,40.1,34.2,27.7,34.4,29.4,23.7,88,82,77,30.44,30.35,0,0,6,0.00
2012-2-4,43.7,35.3,28.2,31.3,27.3,22.5,82,73,58,30.36,30.13,3,0,8,0.00
2012-2-5,43.9,33.2,25.7,32.8,26.3,21.5,86,76,61,30.21,30.11,1,0,6,0.00
2012-2-6,49.3,37.1,28.6,34.6,28.3,23.9,86,72,49,30.14,29.98,6,2,11,0.00
2012-2-7,35.4,32.3,24.4,29.9,25.6,17.0,84,76,72,30.33,30.09,5,1,10,0.00
2012-2-8,35.8,27.8,21.4,22.5,18.7,16.0,81,69,54,30.32,30.16,4,0,8,0.00
2012-2-9,40.8,30.7,23.2,26.3,20.2,17.0,79,66,51,30.17,30.05,5,1,9,0.00
2012-2-10,34.3,28.4,15.6,28.8,22.5,10.8,84,78,70,30.05,29.81,6,0,15,0.00
2012-2-11,19.9,15.5,10.6,12.2,8.4,4.7,82,74,62,30.14,29.90,4,1,15,0.00
2012-2-12,30.4,23.7,17.1,18.6,15.1,9.8,75,70,60,30.13,30.05,6,2,11,0.00
2012-2-13,39.0,30.6,23.5,23.7,18.9,15.8,74,62,49,30.07,29.92,5,1,10,0.00
2012-2-14,35.2,32.3,29.3,28.7,25.5,18.2,82,76,61,29.99,29.82,0,0,6,0.00
2012-2-15,42.4,36.1,32.7,33.0,29.7,27.6,87,78,68,30.14,29.99,2,0,11,0.20
2012-2-16,41.9,37.9,30.7,38.5,34.3,26.8,89,87,82,30.03,29.89,5,1,9,0.24
2012-2-17,43.5,37.1,30.7,30.4,27.8,24.9,86,70,50,30.08,29.91,5,1,13,0.00
2012-2-18,37.8,33.6,25.7,30.7,24.7,17.1,80,70,58,30.18,29.88,6,2,14,0.00
2012-2-19,34.3,26.7,21.9,22.4,18.1,15.2,77,70,59,30.18,30.10,4,0,9,0.00
2012-2-20,40.3,29.0,18.7,27.1,20.4,13.5,82,71,56,30.32,30.09,3,0,11,0.00
2012-2-21,39.4,34.8,28.0,36.1,29.4,20.7,88,81,72,30.08,29.59,7,1,16,0.08
2012-2-22,43.0,36.9,31.1,33.3,30.6,26.0,87,78,65,29.65,29.40,2,0,8,0.00
2012-2-23,44.2,37.7,31.6,33.5,30.7,27.1,85,76,63,29.60,29.41,3,0,8,0.02
2012-2-24,37.2,33.7,30.6,33.7,29.8,25.7,89,86,82,29.70,29.25,5,1,11,0.02
2012-2-25,34.3,30.9,28.8,26.8,24.7,22.2,85,78,68,30.27,29.69,5,1,10,0.02
2012-2-26,38.1,30.8,19.2,26.3,22.9,14.3,83,73,61,30.36,30.08,7,1,20,0.00
2012-2-27,43.0,35.4,29.8,28.6,25.8,23.1,76,68,54,30.42,30.02,9,3,16,0.04
2012-2-28,43.3,33.3,21.9,30.4,24.6,17.2,83,71,58,30.45,30.10,5,1,13,0.06
2012-2-29,41.0,36.5,32.7,38.7,32.9,24.4,92,87,67,30.09,29.46,8,2,16,0.24
2012-3-1,43.2,37.9,34.7,35.3,32.9,31.2,89,82,73,29.86,29.53,5,1,11,0.02
2012-3-2,46.2,39.7,34.5,44.1,34.9,30.7,92,83,72,29.85,29.11,11,3,24,0.18
2012-3-3,38.5,34.6,30.0,33.2,27.3,23.0,82,75,68,29.69,29.21,13,6,21,0.00
2012-3-4,35.4,30.4,27.1,25.0,22.2,19.5,81,72,61,29.87,29.69,4,0,8,0.00
2012-3-5,32.7,27.3,21.4,19.6,17.5,15.1,78,67,55,30.35,29.87,5,1,9,0.00
2012-3-6,53.4,41.0,28.2,37.9,28.9,19.4,73,63,54,30.34,30.02,6,1,21,0.00
2012-3-7,66.0,55.6,46.2,46.3,38.7,31.0,61,53,44,30.09,29.87,7,2,16,0.00
2012-3-8,59.0,46.4,32.2,50.3,38.7,24.3,87,75,62,30.09,29.76,8,2,16,0.00
2012-3-9,38.5,32.7,25.0,26.6,20.5,12.3,77,61,45,30.48,30.05,8,2,14,0.00
2012-3-10,46.6,34.3,21.4,28.2,20.5,12.2,72,58,46,30.50,30.19,4,1,18,0.00
2012-3-11,66.9,50.7,34.0,37.1,30.8,24.1,70,48,31,30.29,30.17,4,1,9,0.00
2012-3-12,60.6,52.2,45.1,55.1,44.8,30.3,89,77,52,30.18,29.76,4,1,12,0.06
2012-3-13,63.7,53.7,43.0,50.9,42.5,29.6,91,69,40,30.10,29.84,8,2,13,0.00
2012-3-14,74.1,54.7,36.0,50.9,39.1,28.9,79,58,38,30.14,30.00,4,1,11,0.00
2012-3-15,74.5,63.7,55.2,62.5,55.5,49.1,87,75,66,30.03,29.93,4,0,14,0.02
2012-3-16,73.4,60.6,49.8,62.9,55.4,47.0,92,84,66,30.12,30.00,4,0,9,0.00
2012-3-17,76.8,63.6,53.1,60.8,55.0,50.8,93,76,51,30.17,30.07,3,0,12,0.00
2012-3-18,77.5,63.1,52.2,61.9,54.8,48.7,89,75,56,30.11,30.03,3,0,7,0.00
2012-3-19,78.4,64.5,52.0,63.0,56.0,49.0,91,75,57,30.11,30.03,4,1,14,0.00
2012-3-20,82.0,68.7,55.8,62.3,56.7,51.9,89,68,46,30.16,30.07,3,0,9,0.00
2012-3-21,85.3,69.0,55.4,62.1,55.3,50.4,85,64,41,30.19,30.08,4,0,11,0.00
2012-3-22,84.4,67.3,54.3,61.7,55.7,48.9,86,69,44,30.15,30.06,6,0,15,0.04
2012-3-23,73.9,63.3,57.0,58.8,55.5,53.5,89,77,58,30.09,29.87,4,1,10,5.57
2012-3-24,58.6,55.1,51.8,54.0,51.6,48.2,92,88,80,29.89,29.81,4,1,114,0.28
2012-3-25,70.5,57.8,48.9,55.4,48.1,31.6,91,73,44,30.06,29.85,3,0,9,13.90
2012-3-26,48.6,39.1,32.4,32.4,24.5,17.8,71,57,44,30.37,30.07,6,1,13,15.91
2012-3-27,51.4,40.7,29.3,34.6,25.9,17.5,65,56,43,30.37,29.83,5,1,18,2.38
2012-3-28,65.8,55.5,44.1,50.7,40.9,31.5,77,58,47,29.96,29.67,9,3,57,7.09
2012-3-29,46.0,41.2,35.4,33.3,30.2,26.6,70,65,60,30.13,29.96,2,0,10,0.48
2012-3-30,39.9,35.4,31.3,33.8,30.1,24.8,88,81,70,30.09,29.77,10,2,20,16.17
2012-3-31,45.3,39.1,34.2,36.0,32.8,30.2,88,79,67,29.98,29.87,3,0,8,0.00
2012-4-1,55.9,45.4,36.5,46.4,38.6,31.2,83,77,69,29.91,29.69,4,0,11,0.00
2012-4-2,56.5,44.8,34.3,39.6,34.7,30.2,86,69,47,30.04,29.84,6,1,14,0.00
2012-4-3,61.3,48.4,37.8,49.9,39.2,28.5,83,71,65,30.05,29.80,4,0,10,0.00
2012-4-4,59.7,50.2,37.9,44.4,35.4,26.6,84,60,36,29.94,29.86,6,1,18,0.00
2012-4-5,48.2,40.4,34.3,31.1,27.8,23.9,76,61,49,30.12,29.93,6,1,13,0.00
2012-4-6,57.7,43.9,32.5,32.5,27.7,23.1,72,55,36,30.26,30.13,3,0,9,0.00
2012-4-7,64.9,48.4,32.2,37.3,30.7,25.6,80,54,29,30.30,30.11,3,0,8,0.00
2012-4-8,62.2,52.8,45.7,41.6,33.2,25.8,72,49,28,30.11,29.99,9,3,17,0.00
2012-4-9,62.2,49.6,37.2,41.1,30.6,21.0,76,51,29,30.00,29.78,10,2,17,0.00
2012-4-10,45.7,41.2,37.2,32.9,27.6,23.2,69,58,43,29.98,29.82,6,1,11,0.00
2012-4-11,52.7,42.9,35.2,35.5,30.2,25.4,77,62,44,30.18,29.97,4,1,10,0.00
2012-4-12,59.0,45.4,31.8,38.4,31.5,26.1,80,60,39,30.23,30.12,3,0,8,0.00
2012-4-13,66.0,50.6,34.0,39.2,33.7,27.2,79,55,35,30.24,30.11,4,0,9,0.00
2012-4-14,66.9,54.8,45.5,54.5,44.7,32.6,82,69,56,30.12,29.88,3,0,9,0.00
2012-4-15,71.6,63.0,56.5,65.1,57.3,51.9,91,82,69,29.90,29.77,2,0,13,0.16
2012-4-16,71.1,61.8,46.6,59.5,50.3,36.0,81,67,51,30.10,29.63,10,4,19,0.02
2012-4-17,57.7,47.9,38.8,38.0,34.2,30.7,75,60,44,30.32,30.10,4,1,8,0.00
2012-4-18,63.0,50.0,34.9,43.1,36.8,28.3,81,62,46,30.30,29.98,4,1,14,0.00
2012-4-19,72.7,59.8,49.3,55.7,47.8,38.4,77,65,53,29.98,29.86,4,1,57,0.00
2012-4-20,74.3,52.6,37.9,54.8,44.7,34.3,87,76,50,29.90,29.66,4,1,14,0.02
2012-4-21,51.6,42.7,36.7,37.0,32.9,27.8,87,69,51,30.03,29.88,3,1,12,0.00
2012-4-22,51.4,42.2,33.8,34.4,27.5,23.2,82,58,37,30.01,29.93,10,2,20,0.00
2012-4-23,57.0,47.3,38.1,29.6,23.6,18.7,63,42,25,29.93,29.59,6,2,17,0.00
2012-4-24,61.2,50.1,39.4,29.4,25.0,19.4,50,38,26,29.69,29.51,8,3,20,0.00
2012-4-25,66.6,52.4,35.1,44.5,34.9,27.5,77,54,36,29.82,29.70,3,0,11,0.00
2012-4-26,55.9,49.7,38.8,49.8,41.3,25.0,86,73,55,30.05,29.64,1,0,7,0.00
2012-4-27,55.6,44.2,32.9,29.4,26.3,23.2,71,51,32,30.21,30.04,2,0,57,0.00
2012-4-28,47.3,41.9,37.2,31.8,26.2,22.8,60,54,45,30.24,30.16,0,0,0,0.00
2012-4-29,63.1,47.6,28.9,31.5,25.6,20.6,78,46,26,30.33,30.19,0,0,0,0.00
2012-4-30,53.4,48.0,41.7,48.2,38.8,20.7,87,72,36,30.22,29.88,0,0,0,0.00
2012-5-1,60.4,53.8,50.0,52.5,49.0,46.7,89,84,73,30.06,29.89,0,0,0,0.00
2012-5-2,81.3,64.4,51.6,68.5,55.8,47.5,87,75,52,29.98,29.83,0,0,0,0.00
2012-5-3,88.5,72.6,60.4,69.8,61.4,54.5,86,70,46,29.99,29.83,0,0,0,0.55
2012-5-4,74.5,65.5,57.7,66.1,61.0,53.2,91,85,71,30.03,29.92,0,0,0,0.34
2012-5-5,71.2,60.5,54.0,56.4,51.1,47.8,86,72,54,30.10,29.97,0,0,0,0.00
2012-5-6,69.4,61.0,51.8,49.1,42.8,38.6,77,54,36,30.12,29.97,3,0,10,0.00
2012-5-7,62.2,56.0,49.6,57.7,51.2,44.0,89,84,67,30.03,29.79,3,0,8,0.00
2012-5-8,72.9,61.7,52.0,57.2,52.0,43.8,90,72,52,29.82,29.77,4,0,8,0.00
2012-5-9,66.6,54.2,47.5,51.6,46.8,42.7,86,77,54,29.86,29.75,6,0,10,0.02
2012-5-10,64.2,53.6,41.2,46.7,39.9,35.4,87,63,38,29.99,29.84,2,0,8,0.00
2012-5-11,76.5,60.7,45.1,45.9,42.2,37.9,77,54,32,30.14,29.99,2,0,7,0.00
2012-5-12,68.4,60.9,54.0,57.9,50.7,43.2,89,70,54,30.21,30.13,1,0,4,0.00
2012-5-13,70.5,59.6,49.8,56.3,51.0,45.7,90,75,55,30.24,30.10,2,0,6,0.00
2012-5-14,77.7,63.4,49.3,56.0,46.6,41.2,87,59,31,30.11,29.99,1,0,5,0.00
2012-5-15,83.1,66.4,47.1,52.5,47.3,39.9,78,53,34,30.01,29.82,5,1,14,0.00
2012-5-16,64.9,58.5,50.4,52.5,43.0,37.1,80,58,40,30.13,29.86,2,0,9,0.00
2012-5-17,69.3,55.8,40.6,43.8,39.9,34.9,82,58,36,30.21,30.11,2,0,7,0.00
2012-5-18,77.0,61.1,45.7,47.9,43.0,39.1,84,55,30,30.17,30.06,2,0,8,0.00
2012-5-19,85.8,68.3,50.0,54.4,48.6,41.9,76,52,31,30.15,30.08,3,0,9,0.00
2012-5-20,88.2,72.8,55.2,59.9,53.9,47.9,81,54,34,30.16,30.00,3,0,9,0.00
2012-5-21,77.5,66.3,57.4,63.1,56.1,50.4,86,70,53,30.03,29.98,1,0,4,0.00
2012-5-22,71.2,59.6,53.2,55.9,50.8,45.9,87,74,55,30.02,29.92,1,0,4,0.00
2012-5-23,78.6,63.4,47.5,56.7,50.9,43.5,87,66,41,29.97,29.85,2,0,7,0.00
2012-5-24,83.7,71.6,56.3,64.7,58.5,50.0,82,64,51,29.94,29.77,3,1,13,0.00
2012-5-25,85.8,75.3,64.0,65.9,58.3,51.7,71,57,37,30.12,29.82,3,0,8,0.00
2012-5-26,73.8,66.6,61.9,60.8,55.2,49.3,80,67,56,30.26,30.11,2,0,7,0.00
2012-5-27,81.7,69.9,60.1,63.7,57.5,51.3,75,65,54,30.13,29.95,4,1,12,0.00
2012-5-28,92.5,79.1,66.4,70.5,64.1,17.9,82,62,44,29.95,29.74,1,0,8,0.00
2012-5-29,83.5,76.5,67.3,64.7,56.7,47.1,74,52,33,29.82,29.70,3,0,7,0.00
2012-5-30,73.6,63.8,52.3,51.8,48.1,45.3,80,58,41,29.90,29.80,0,0,0,0.00
2012-5-31,61.3,54.9,48.4,49.5,46.0,43.1,83,72,62,30.00,29.86,0,0,0,0.00
2012-6-1,57.0,52.0,48.0,54.4,48.7,43.6,91,89,83,29.88,29.53,0,0,0,0.00
2012-6-2,71.8,58.4,48.0,52.5,47.2,43.7,87,68,42,29.72,29.62,4,0,9,0.00
2012-6-3,79.0,67.1,58.1,55.4,50.5,47.0,74,57,37,29.80,29.69,4,1,10,0.00
2012-6-4,69.3,61.9,52.7,54.3,51.0,47.5,84,68,56,29.93,29.78,1,0,6,0.00
2012-6-5,68.2,59.8,51.4,52.0,48.2,45.7,84,67,49,30.03,29.92,3,0,9,0.00
2012-6-6,77.7,62.9,48.4,53.6,49.3,43.7,85,64,36,30.08,29.99,1,0,4,0.00
2012-6-7,81.0,67.3,52.9,56.7,52.0,47.9,85,61,38,30.08,30.01,1,0,5,0.00
2012-6-8,85.8,70.9,55.0,56.1,52.5,48.4,79,55,34,30.06,29.91,1,0,5,0.00
2012-6-9,89.8,76.3,64.8,59.3,54.9,50.4,63,49,33,29.95,29.88,2,0,6,0.00
2012-6-10,91.6,76.5,59.9,61.5,57.1,53.6,81,54,33,30.06,29.95,2,0,8,0.00
2012-6-11,73.9,70.4,66.4,68.5,62.3,54.7,86,76,54,29.99,29.85,0,0,4,0.00
2012-6-12,80.4,72.0,61.5,66.7,58.4,46.9,89,65,41,30.11,29.79,0,0,0,0.00
2012-6-13,72.7,61.1,48.4,50.0,45.1,40.9,77,57,42,30.21,30.11,0,0,0,0.00
2012-6-14,79.3,64.8,48.0,53.6,47.5,40.4,80,56,37,30.22,30.13,0,0,0,0.00
2012-6-15,86.7,71.6,56.1,61.5,54.2,45.8,83,57,33,30.18,30.12,0,0,0,0.00
2012-6-16,87.1,75.6,63.3,67.7,61.3,54.5,80,62,47,30.18,29.95,0,0,0,0.00
2012-6-17,77.5,72.2,61.9,69.4,63.9,57.0,86,75,62,29.96,29.82,0,0,0,0.00
2012-6-18,78.1,68.8,57.4,69.2,61.8,53.7,90,79,62,29.93,29.79,0,0,0,0.00
2012-6-19,88.3,78.6,72.1,71.1,66.9,64.1,82,68,53,30.02,29.86,0,0,0,0.00
2012-6-20,92.8,82.0,70.5,67.4,64.7,61.7,76,57,41,30.11,29.93,0,0,0,0.00
2012-6-21,91.0,77.6,66.7,69.9,64.6,60.3,86,65,48,29.97,29.83,0,0,0,0.00
2012-6-22,81.7,70.6,61.5,65.0,59.6,55.1,89,70,43,29.99,29.93,0,0,0,0.00
2012-6-23,81.7,70.1,57.6,61.6,56.7,53.4,87,65,42,30.06,29.98,0,0,0,0.00
2012-6-24,84.7,74.1,64.6,63.8,60.4,57.5,81,64,47,30.05,29.89,1,0,6,0.00
2012-6-25,73.6,66.6,58.8,60.6,51.0,45.4,78,59,39,30.05,29.93,4,1,12,0.00
2012-6-26,82.0,67.2,52.0,54.2,50.0,46.4,82,57,34,30.07,29.95,2,0,8,0.00
2012-6-27,88.7,73.7,56.3,58.4,53.4,49.5,80,52,31,30.03,29.81,3,0,8,0.00
2012-6-28,98.4,81.5,65.3,74.4,64.5,54.1,71,57,43,29.87,29.70,3,0,8,0.00
2012-6-29,91.2,80.5,70.5,70.2,64.2,57.1,81,60,35,29.88,29.77,2,0,7,0.00
2012-6-30,93.0,79.0,67.8,68.0,62.7,58.6,76,59,39,29.86,29.77,3,1,8,0.00
2012-7-1,91.2,78.6,64.0,65.8,61.5,58.4,83,58,40,29.99,29.86,3,0,8,0.00
2012-7-2,94.3,80.0,64.8,67.3,62.7,59.0,83,58,34,30.03,29.93,2,0,6,0.00
2012-7-3,86.9,75.6,70.7,74.5,68.1,64.0,88,78,63,29.97,29.81,5,0,14,0.02
2012-7-4,99.3,83.3,70.0,77.2,70.8,65.7,90,69,42,29.89,29.81,4,1,8,0.00
2012-7-5,78.3,73.3,68.5,69.2,67.1,64.5,89,81,70,30.00,29.84,5,0,11,0.00
2012-7-7,94.8,86.0,75.4,77.6,70.6,61.0,68,61,54,30.00,29.91,2,0,8,0.00
2012-7-8,84.0,75.9,67.8,62.7,59.8,56.8,72,58,47,30.06,29.99,3,0,8,0.00
2012-7-9,85.8,74.1,61.5,64.5,60.0,57.0,87,64,43,30.07,29.98,2,0,6,0.00
2012-7-10,82.9,73.1,64.0,61.5,56.1,53.1,76,57,38,30.14,30.03,3,0,8,0.00
2012-7-11,84.7,71.4,57.7,60.6,54.7,51.8,84,59,35,30.19,30.12,3,0,10,0.00
2012-7-12,87.6,74.0,57.7,62.0,55.3,51.8,84,55,33,30.17,30.08,3,0,9,0.00
2012-7-13,93.6,78.8,64.6,67.5,61.5,57.2,80,58,34,30.14,30.06,4,1,15,0.00
2012-7-14,90.9,78.4,66.7,67.1,64.0,60.4,82,63,42,30.12,30.01,3,0,10,0.00
2012-7-15,93.7,81.3,72.0,70.5,67.5,64.5,84,65,40,30.06,29.94,3,0,8,0.00
2012-7-16,95.7,82.7,68.7,70.7,66.6,63.2,86,61,38,30.01,29.85,2,0,6,0.00
2012-7-17,99.7,86.9,75.9,72.7,67.4,63.2,70,54,36,29.89,29.77,4,1,10,0.00
2012-7-18,83.3,76.1,70.9,72.8,68.4,64.8,91,78,65,29.99,29.82,1,0,7,0.00
2012-7-19,73.6,70.0,66.4,66.8,64.0,62.0,89,82,72,29.99,29.93,3,0,8,0.00
2012-7-20,79.3,70.3,63.1,61.8,58.2,55.2,86,67,48,30.08,29.99,4,1,10,0.00
2012-7-21,88.9,73.6,57.6,63.5,59.5,53.7,88,64,38,30.12,30.01,1,0,5,0.00
2012-7-22,91.2,79.8,67.3,70.2,65.5,61.0,81,63,47,30.09,30.00,3,0,9,0.00
2012-7-23,96.6,83.1,73.2,72.4,68.1,64.9,84,62,44,30.04,29.81,5,1,11,0.00
2012-7-24,85.3,77.8,66.9,67.6,62.4,53.6,76,60,43,30.01,29.85,4,0,9,0.00
2012-7-25,89.4,74.7,57.6,71.2,59.9,52.1,84,62,41,30.01,29.64,4,0,13,0.00
2012-7-26,81.5,74.5,70.3,73.0,69.4,66.3,91,84,70,29.76,29.62,2,0,11,0.04
2012-7-27,80.8,70.5,66.4,70.8,66.6,63.3,92,88,68,29.93,29.74,4,0,10,0.00
2012-7-28,80.8,70.6,63.1,66.2,62.4,56.7,92,77,54,30.10,29.93,2,0,8,0.00
2012-7-29,84.4,71.1,58.8,62.2,58.5,55.3,89,67,42,30.12,30.02,1,0,6,0.00
2012-7-30,88.9,75.9,63.3,66.8,62.8,59.4,88,66,44,30.05,29.91,2,0,8,0.00
2012-7-31,83.8,74.2,65.3,69.8,65.2,61.6,90,75,59,29.95,29.83,3,0,12,0.00
2012-8-1,82.6,72.1,62.4,64.5,61.6,57.8,89,71,50,29.96,29.88,1,0,4,0.00
2012-8-2,87.4,74.2,60.6,70.2,64.1,56.6,89,72,54,29.93,29.85,0,0,4,0.00
2012-8-3,92.5,79.8,69.3,72.2,67.1,63.0,88,68,43,29.97,29.90,3,0,10,0.00
2012-8-4,88.0,78.9,68.9,73.0,68.8,63.8,87,72,58,29.99,29.80,5,0,14,0.00
2012-8-5,85.3,75.8,65.8,71.1,63.4,52.8,90,68,43,30.13,29.85,0,0,0,0.00
2012-8-6,84.7,70.2,55.6,58.1,54.0,50.9,86,60,34,30.18,30.01,0,0,0,0.00
2012-8-7,89.8,73.5,56.8,63.0,58.2,52.0,87,62,36,30.02,29.90,0,0,0,0.00
2012-8-8,86.2,74.8,66.9,64.0,60.3,55.5,86,63,40,30.00,29.94,0,0,0,0.00
2012-8-9,69.4,65.3,61.0,62.3,60.9,57.5,91,86,68,29.98,29.81,0,0,0,0.00
2012-8-10,71.4,64.2,59.5,64.9,61.4,57.1,93,90,79,29.81,29.65,66,0,114,0.06
2012-8-11,66.9,64.8,61.5,61.9,60.1,57.6,87,85,83,29.93,29.87,0,0,0,0.00
2012-8-12,79.2,67.4,57.7,63.3,59.5,55.1,92,77,54,30.01,29.93,0,0,0,0.00
2012-8-13,74.3,66.7,62.1,63.3,60.7,57.5,89,81,65,30.02,29.95,0,0,0,0.00
2012-8-14,75.2,66.7,61.9,64.5,60.7,57.3,92,82,61,29.95,29.88,0,0,0,0.12
2012-8-15,81.7,69.0,59.5,63.5,59.6,56.3,92,74,49,29.97,29.91,0,0,0,0.00
2012-8-16,78.6,70.5,21.0,66.4,62.5,18.2,90,76,63,29.97,29.75,4,0,14,0.00
2012-8-17,75.4,67.4,60.6,61.2,57.1,50.9,88,71,52,29.98,29.83,0,0,0,0.00
2012-8-18,60.4,60.0,59.4,50.7,50.5,50.2,72,71,70,29.98,29.98,0,0,0,0.00
2012-8-19,64.2,62.2,60.1,53.1,52.1,50.9,76,70,62,29.94,29.93,0,0,0,0.00
2012-8-20,76.8,64.3,55.4,57.6,53.0,50.2,88,69,46,30.00,29.92,0,0,0,0.00
2012-8-21,78.4,65.3,54.1,60.1,54.0,49.5,86,69,44,30.10,29.99,0,0,0,0.00
2012-8-22,80.8,67.1,55.9,60.0,55.6,51.4,87,69,45,30.15,30.07,0,0,0,0.00
2012-8-23,84.7,69.5,55.9,61.7,57.2,51.4,87,67,43,30.16,30.08,0,0,0,0.00
2012-8-24,86.5,72.7,60.6,65.3,60.5,56.4,88,68,43,30.14,30.05,0,0,0,0.00
2012-8-25,90.1,75.1,62.8,67.3,61.3,58.4,87,65,39,30.14,30.07,0,0,0,0.00
2012-8-26,88.5,75.4,32.7,67.4,62.7,15.6,84,66,48,30.15,30.00,0,0,0,0.00
2012-8-27,82.9,73.6,67.6,71.6,66.2,61.0,90,78,59,30.04,29.95,0,0,0,0.18
2012-8-28,78.3,68.1,60.1,61.5,57.9,55.2,86,71,52,30.11,30.01,0,0,0,0.00
2012-8-29,79.2,66.4,56.5,61.1,56.7,52.3,87,72,50,30.13,30.03,0,0,0,0.00
2012-8-30,84.0,69.8,57.9,63.9,58.6,54.1,88,70,46,30.11,29.99,0,0,0,0.00
2012-8-31,93.4,78.3,65.5,68.4,62.2,57.0,74,59,43,30.06,29.97,0,0,0,0.00
2012-9-1,82.2,73.3,64.9,63.7,58.5,55.7,75,60,48,30.14,30.04,0,0,0,0.00
2012-9-2,79.0,72.5,67.8,67.5,61.1,55.9,80,68,55,30.07,29.97,0,0,0,0.00
2012-9-3,87.1,74.7,64.2,70.8,64.6,57.8,81,72,56,30.00,29.88,0,0,0,0.00
2012-9-4,77.9,72.0,67.3,70.9,67.0,63.8,91,84,75,29.93,29.86,0,0,0,0.83
2012-9-5,77.9,71.2,64.6,70.9,66.5,62.0,93,85,76,29.90,29.79,0,0,0,0.00
2012-9-6,82.2,72.0,65.1,66.5,63.7,61.8,91,77,57,29.92,29.82,0,0,0,0.00
2012-9-7,77.5,68.5,60.1,65.3,60.9,56.2,88,77,60,29.93,29.68,0,0,0,0.22
2012-9-8,69.3,61.8,55.9,58.3,54.3,49.5,91,77,61,29.86,29.66,0,0,0,0.48
2012-9-9,70.2,59.5,51.4,54.9,50.0,47.3,89,72,50,30.10,29.85,0,0,0,0.00
2012-9-10,72.7,59.0,48.6,53.0,48.8,44.5,88,71,43,30.22,30.10,0,0,0,0.00
2012-9-11,79.5,63.6,50.7,59.4,52.9,46.9,88,70,47,30.21,30.13,0,0,0,0.00
2012-9-12,82.9,67.9,54.3,62.5,55.6,49.5,85,67,44,30.22,30.15,0,0,0,0.00
2012-9-13,83.3,69.5,60.6,63.7,58.5,55.1,85,70,46,30.24,30.16,0,0,0,0.00
2012-9-14,70.2,60.3,53.4,56.7,52.1,47.8,90,76,50,30.27,30.21,0,0,0,0.48
2012-9-15,70.5,58.1,47.5,53.2,48.3,42.9,86,71,49,30.33,30.16,0,0,0,0.00
2012-9-16,77.7,61.6,49.8,56.9,51.3,45.7,88,71,44,30.16,30.02,0,0,0,0.00
2012-9-17,76.8,64.2,53.4,57.9,53.3,47.7,82,69,46,30.03,29.72,0,0,0,0.00
2012-9-18,64.8,57.6,47.5,58.9,49.1,38.0,85,74,59,29.95,29.62,0,0,0,0.04
2012-9-19,65.7,53.6,40.6,44.3,40.3,36.0,85,63,43,30.10,29.95,0,0,0,0.00
2012-9-20,71.8,60.4,52.2,55.1,46.3,39.5,73,60,52,29.97,29.83,0,0,0,0.00
2012-9-21,70.0,56.7,48.0,49.0,45.4,41.7,84,68,40,29.92,29.78,0,0,0,0.18
2012-9-22,57.0,52.7,45.3,49.3,45.9,40.2,88,78,65,30.06,29.72,0,0,0,0.12
2012-9-23,57.0,49.6,44.4,43.9,41.5,39.2,87,74,55,30.19,30.05,0,0,0,0.00
2012-9-24,63.7,51.0,38.5,44.0,38.9,34.6,87,66,44,30.18,29.90,0,0,0,0.00
2012-9-25,67.3,57.6,48.0,51.8,45.8,37.6,81,65,55,29.95,29.85,0,0,0,0.00
2012-9-26,65.7,60.2,53.8,58.3,54.6,45.8,90,82,69,30.14,29.88,0,0,0,0.02
2012-9-27,64.6,55.8,49.1,47.6,45.0,42.6,82,68,51,30.24,30.13,0,0,0,0.00
2012-9-28,68.2,56.3,47.1,50.0,46.4,42.2,86,71,50,30.17,30.07,0,0,0,0.00
2012-9-29,70.3,56.3,28.6,50.5,45.3,9.3,87,69,43,30.09,29.93,0,0,0,0.00
2012-9-30,62.4,54.6,46.9,49.8,46.0,42.2,89,73,60,29.97,29.92,0,0,0,0.00
2012-10-1,65.3,53.8,42.6,50.7,44.9,38.4,88,73,54,29.96,29.85,0,0,0,0.00
2012-10-2,66.7,59.1,52.7,53.7,50.3,46.6,87,73,61,29.92,29.82,0,0,0,0.02
2012-10-3,65.5,60.2,55.9,59.9,54.7,50.4,91,82,73,30.06,29.90,0,0,0,0.04
2012-10-4,75.7,63.7,55.2,58.2,53.9,50.7,85,72,50,30.08,29.98,0,0,0,0.10
2012-10-5,62.4,53.8,46.2,56.5,47.6,42.2,87,80,66,30.06,29.93,0,0,0,0.24
2012-10-6,49.3,45.3,41.2,42.4,39.0,37.1,89,79,67,30.09,29.91,0,0,0,0.00
2012-10-7,48.7,43.5,38.5,39.7,36.9,33.5,86,78,64,30.12,30.06,0,0,0,0.02
2012-10-8,55.4,43.2,32.7,38.1,33.4,29.3,88,70,47,30.18,30.08,0,0,0,0.00
2012-10-9,61.7,49.1,37.8,42.6,36.5,31.0,77,63,47,30.10,29.82,0,0,0,0.00
2012-10-10,52.7,45.1,36.7,42.0,36.7,29.3,86,73,60,30.13,29.77,0,0,0,0.20
2012-10-11,61.3,46.2,32.5,39.6,34.2,27.8,85,65,42,30.16,30.00,0,0,0,0.00
2012-10-12,52.5,43.0,36.7,36.8,33.1,29.4,83,69,47,30.41,30.16,0,0,0,0.04
2012-10-13,58.8,43.0,33.6,56.5,39.1,28.4,92,86,77,30.36,29.87,0,0,0,0.54
2012-10-14,66.7,63.1,58.6,61.0,59.3,54.1,93,88,79,29.88,29.44,0,0,0,0.32
2012-10-15,58.3,49.0,46.0,53.9,43.8,41.2,86,82,78,29.92,29.46,0,0,0,0.02
2012-10-16,58.8,48.9,37.8,44.1,40.0,33.3,86,72,55,29.97,29.74,1,0,8,0.00
2012-10-17,72.1,60.0,49.3,53.0,49.0,43.8,86,69,47,29.76,29.55,4,1,16,0.30
2012-10-18,58.8,55.0,49.3,53.2,46.4,38.0,87,74,53,29.66,29.39,5,1,20,0.34
2012-10-19,55.0,49.7,45.7,44.3,41.6,37.9,87,74,63,29.65,29.54,4,1,114,0.12
2012-10-20,55.2,48.9,45.3,46.8,43.8,41.6,89,83,68,29.89,29.57,4,0,8,0.10
2012-10-21,62.4,49.4,39.4,48.7,42.2,36.1,90,78,57,30.08,29.89,2,0,7,0.00
2012-10-22,70.3,55.4,42.4,58.0,48.4,38.4,89,78,65,30.08,29.95,4,0,10,0.02
2012-10-23,66.0,61.1,57.6,61.0,57.7,52.9,91,88,84,30.00,29.90,2,0,9,0.59
2012-10-24,75.7,65.0,58.6,64.8,59.4,56.3,93,83,65,30.03,29.95,1,0,8,0.14
2012-10-25,75.9,64.9,55.0,61.2,55.6,51.5,89,73,54,29.98,29.83,4,0,15,0.00
2012-10-26,66.9,50.3,41.2,55.4,42.0,33.4,84,73,65,30.21,29.84,7,1,12,0.06
2012-10-27,52.7,44.1,37.9,39.5,34.0,30.5,81,69,52,30.20,30.11,5,1,17,0.02
2012-10-28,48.0,40.9,36.3,36.8,31.0,28.3,79,68,55,30.19,30.09,8,2,21,0.00
2012-10-29,42.4,40.5,37.9,33.0,30.4,27.1,73,67,59,30.10,29.72,10,3,31,0.00
2012-10-30,41.0,36.8,33.8,37.5,33.4,29.8,90,87,74,29.72,29.46,7,4,20,0.02
2012-10-31,42.6,38.7,35.8,39.3,35.6,33.1,90,89,86,29.64,29.50,4,1,12,0.00
2012-11-1,48.0,41.9,39.4,36.6,34.6,30.7,88,76,62,29.77,29.63,6,2,11,0.00
2012-11-2,41.9,39.8,36.7,32.1,30.8,29.7,78,70,65,30.04,29.76,8,1,14,0.00
2012-11-3,43.5,36.7,30.4,33.3,29.1,25.6,84,74,65,30.16,30.04,2,0,6,0.00
2012-11-4,40.8,34.4,28.6,30.7,26.7,23.2,81,74,64,30.18,30.12,2,0,6,0.00
2012-11-5,45.1,35.9,28.6,31.0,27.6,23.5,82,72,55,30.18,30.13,4,0,57,0.00
2012-11-6,42.3,34.5,27.1,32.5,27.3,22.6,85,75,61,30.13,29.96,6,0,57,0.00
2012-11-7,47.5,37.3,30.0,35.8,28.9,24.3,82,72,57,30.13,29.96,5,0,10,0.00
2012-11-8,48.6,36.5,27.5,35.8,28.7,23.0,85,74,59,30.19,30.10,2,0,57,0.00
2012-11-9,53.4,43.2,31.1,41.7,35.9,26.2,85,76,63,30.16,30.07,2,0,57,0.00
2012-11-10,60.4,52.4,46.2,49.8,45.2,40.4,86,77,67,30.12,30.00,3,0,11,0.00
2012-11-11,66.9,58.7,50.2,51.6,45.2,40.1,74,62,50,30.10,29.94,5,1,20,0.00
2012-11-12,59.5,45.8,34.2,50.5,38.1,26.2,87,75,51,30.21,29.88,6,2,20,0.54
2012-11-13,35.4,32.5,25.5,27.1,23.7,19.6,79,70,63,30.50,30.21,5,1,13,0.00
2012-11-14,42.6,31.5,22.8,29.8,23.9,18.1,84,74,58,30.55,30.39,2,0,8,0.00
2012-11-15,46.6,36.0,29.3,34.9,28.8,24.4,84,76,61,30.39,30.29,1,0,5,0.00
2012-11-16,52.2,36.9,27.0,39.9,29.5,22.7,86,75,57,30.46,30.33,1,0,4,0.00
2012-11-17,53.4,39.1,29.1,39.9,30.9,24.9,87,73,53,30.56,30.46,2,0,8,0.00
2012-11-18,52.3,42.5,34.5,42.2,35.6,28.9,90,78,58,30.51,30.38,5,1,12,0.00
2012-11-19,56.3,42.7,33.1,42.8,34.3,29.9,89,74,51,30.38,30.15,2,0,8,0.00
2012-11-20,55.4,46.5,40.8,44.3,39.4,32.5,86,77,62,30.15,30.05,1,0,4,0.02
2012-11-21,57.7,44.7,34.9,46.7,38.5,31.3,89,79,63,30.21,30.13,2,0,8,0.00
2012-11-22,59.0,48.8,38.5,47.4,41.8,34.3,90,78,62,30.14,29.79,3,0,12,0.06
2012-11-23,51.1,40.0,32.4,46.4,33.4,23.7,87,77,70,29.97,29.67,9,4,18,0.08
2012-11-24,35.2,31.9,30.0,23.7,22.0,19.9,72,67,60,30.07,29.96,6,4,11,0.00
2012-11-25,35.8,32.3,28.2,28.9,25.2,21.6,80,75,69,29.99,29.80,4,1,8,0.00
2012-11-26,36.3,33.2,30.9,26.4,23.9,20.8,77,69,62,30.24,29.97,4,0,7,0.00
2012-11-27,36.1,28.6,22.3,23.7,19.4,15.9,78,69,58,30.31,30.18,3,0,6,0.00
2012-11-28,39.7,32.2,26.6,27.4,22.4,18.9,73,67,60,30.26,30.15,5,2,11,0.00
2012-11-29,48.4,37.0,27.0,32.8,26.8,19.6,75,67,53,30.24,30.14,5,1,10,0.00
2012-11-30,41.5,37.0,31.8,36.7,31.3,24.8,84,80,75,30.23,30.12,7,2,13,0.00
2012-12-1,53.2,41.6,33.6,46.8,37.4,29.2,92,85,78,30.23,29.97,4,1,58,0.00
2012-12-2,56.1,52.1,46.2,53.2,48.1,43.2,90,86,78,30.10,29.90,3,0,9,0.26
2012-12-3,58.8,50.8,44.2,56.5,48.7,41.5,94,92,90,30.11,29.89,3,1,12,0.00
2012-12-4,59.0,50.5,40.3,56.1,46.0,33.6,90,84,77,30.09,29.89,4,2,15,0.54
2012-12-5,39.9,32.6,25.7,33.3,24.4,20.2,81,72,61,30.35,30.09,3,1,10,0.00
2012-12-6,39.4,33.2,26.1,31.4,27.2,21.0,84,79,70,30.31,29.94,2,0,7,0.00
2012-12-7,44.6,40.2,36.1,41.3,36.4,30.6,91,86,80,29.95,29.87,4,0,114,0.04
2012-12-8,41.2,37.0,33.1,38.8,34.1,29.5,91,89,86,30.14,29.81,3,0,8,0.16
2012-12-9,35.4,33.4,31.6,31.7,29.9,6.8,91,87,82,30.14,29.64,10,2,114,0.02
2012-12-10,40.5,35.7,31.1,99.9,32.4,24.9,92,86,78,29.85,29.58,6,1,114,0.02
2012-12-11,35.8,30.3,23.9,28.6,23.8,5.4,84,77,70,30.10,29.83,4,0,114,0.00
2012-12-12,43.0,32.4,3.9,31.7,24.9,-1.8,84,74,58,30.32,30.10,5,0,114,0.00
2012-12-13,43.7,33.8,26.4,31.8,26.1,22.1,85,74,58,30.32,30.12,4,0,114,0.00
2012-12-14,47.8,35.9,3.6,36.5,28.3,-1.6,84,74,62,30.21,30.13,0,0,4,0.00
2012-12-15,42.6,38.3,32.2,39.1,33.6,28.2,91,84,72,30.14,29.67,5,1,15,0.02
2012-12-16,52.0,46.7,42.4,48.9,43.7,10.6,92,89,84,29.67,29.57,5,0,114,0.02
2012-12-17,42.6,41.4,40.6,39.3,37.8,37.0,88,87,87,29.71,29.64,3,1,6,0.00
2012-12-18,41.7,37.3,32.9,33.4,31.3,28.9,86,79,69,29.74,29.62,6,1,4,0.00
2012-12-19,40.6,36.7,31.8,34.9,32.3,27.9,87,84,79,30.10,29.71,3,0,5,0.00
2012-12-20,45.0,38.9,32.9,43.1,35.8,29.4,93,88,83,30.06,29.14,12,4,25,0.52
2012-12-21,35.8,32.3,29.8,32.2,29.0,25.9,90,87,81,29.60,29.17,4,1,13,0.00
2012-12-22,33.4,30.1,26.6,25.3,23.5,21.5,81,76,71,30.03,29.83,8,4,16,0.00
2012-12-23,35.4,27.8,19.6,27.9,22.0,15.4,85,79,72,30.00,29.85,3,0,8,0.00
2012-12-24,32.4,27.1,21.0,25.6,21.9,15.8,86,81,74,29.98,29.80,6,1,13,0.00
2012-12-25,33.6,28.7,24.1,25.5,22.7,20.5,87,78,68,30.28,29.96,5,1,10,0.00
2012-12-26,30.0,27.9,25.3,25.0,23.6,22.3,89,84,77,30.24,29.83,10,4,22,0.00
2012-12-27,31.3,26.2,14.7,25.8,21.6,10.2,89,83,74,30.11,29.84,4,1,10,0.00
2012-12-28,30.6,21.0,11.3,25.2,16.5,6.6,86,83,79,30.13,29.91,1,0,6,0.00
2012-12-29,32.4,27.3,22.5,26.5,23.1,17.8,88,84,79,30.01,29.79,0,0,4,0.00
2012-12-30,31.8,25.8,19.4,26.2,20.9,14.6,86,82,76,30.24,30.01,6,1,10,0.00
2012-12-31,36.1,28.4,19.0,28.9,23.0,14.4,84,80,75,30.13,29.87,6,2,11,0.00
2013-1-1,29.1,22.7,11.3,23.4,14.4,4.2,79,70,60,30.11,29.98,4,1,13,0.00